sensor_id;sensor_type;location;lat;lon;timestamp;pressure;altitude;pressure_sealevel;temperature;humidity
31501;BME280;31032;49.512;10.892;2022-08-11T00:02:37;98416.88;;;18.40;55.59
31501;BME280;31032;49.512;10.892;2022-08-11T00:05:07;98413.41;;;18.32;55.63
31501;BME280;31032;49.512;10.892;2022-08-11T00:07:34;98417.34;;;18.12;56.70
31501;BME280;31032;49.512;10.892;2022-08-11T00:10:09;98417.41;;;17.86;57.27
31501;BME280;31032;49.512;10.892;2022-08-11T00:12:35;98424.28;;;18.29;55.17
31501;BME280;31032;49.512;10.892;2022-08-11T00:15:01;98420.16;;;18.26;54.71
31501;BME280;31032;49.512;10.892;2022-08-11T00:17:29;98419.66;;;18.23;56.67
31501;BME280;31032;49.512;10.892;2022-08-11T00:20:02;98419.31;;;18.26;56.65
31501;BME280;31032;49.512;10.892;2022-08-11T00:22:29;98423.75;;;18.17;57.46
31501;BME280;31032;49.512;10.892;2022-08-11T00:24:56;98420.94;;;18.11;58.17
31501;BME280;31032;49.512;10.892;2022-08-11T00:27:35;98413.41;;;18.32;57.47
31501;BME280;31032;49.512;10.892;2022-08-11T00:30:03;98422.94;;;18.41;55.72
31501;BME280;31032;49.512;10.892;2022-08-11T00:32:29;98428.22;;;18.25;56.70
31501;BME280;31032;49.512;10.892;2022-08-11T00:34:57;98426.22;;;18.11;58.04
31501;BME280;31032;49.512;10.892;2022-08-11T00:37:23;98426.81;;;17.96;59.36
31501;BME280;31032;49.512;10.892;2022-08-11T00:39:52;98424.25;;;18.21;57.64
31501;BME280;31032;49.512;10.892;2022-08-11T00:45:25;98421.59;;;18.04;57.47
31501;BME280;31032;49.512;10.892;2022-08-11T00:48:06;98421.47;;;17.64;58.25
31501;BME280;31032;49.512;10.892;2022-08-11T00:53:29;98412.56;;;17.65;58.66
31501;BME280;31032;49.512;10.892;2022-08-11T00:59:42;98407.19;;;17.41;60.25
31501;BME280;31032;49.512;10.892;2022-08-11T01:28:24;98420.47;;;17.06;61.79
31501;BME280;31032;49.512;10.892;2022-08-11T01:36:58;98408.03;;;16.90;62.84
31501;BME280;31032;49.512;10.892;2022-08-11T01:48:13;98411.94;;;16.86;63.45
31501;BME280;31032;49.512;10.892;2022-08-11T01:50:54;98409.66;;;16.66;64.00
31501;BME280;31032;49.512;10.892;2022-08-11T01:53:50;98411.56;;;16.56;64.22
31501;BME280;31032;49.512;10.892;2022-08-11T01:59:31;98410.19;;;16.52;63.96
31501;BME280;31032;49.512;10.892;2022-08-11T02:02:33;98399.28;;;16.47;65.05
31501;BME280;31032;49.512;10.892;2022-08-11T02:10:57;98415.97;;;16.20;65.21
31501;BME280;31032;49.512;10.892;2022-08-11T02:13:56;98411.09;;;16.25;65.45
31501;BME280;31032;49.512;10.892;2022-08-11T02:19:12;98421.00;;;16.13;65.95
31501;BME280;31032;49.512;10.892;2022-08-11T02:22:30;98412.28;;;16.13;66.06
31501;BME280;31032;49.512;10.892;2022-08-11T02:25:37;98418.03;;;16.16;65.91
31501;BME280;31032;49.512;10.892;2022-08-11T02:28:26;98408.91;;;16.56;63.89
31501;BME280;31032;49.512;10.892;2022-08-11T02:31:14;98399.88;;;16.76;62.89
31501;BME280;31032;49.512;10.892;2022-08-11T02:34:21;98397.38;;;16.74;63.06
31501;BME280;31032;49.512;10.892;2022-08-11T02:37:00;98406.44;;;16.54;63.92
31501;BME280;31032;49.512;10.892;2022-08-11T02:39:34;98404.28;;;16.50;63.95
31501;BME280;31032;49.512;10.892;2022-08-11T02:42:09;98404.41;;;16.66;63.36
31501;BME280;31032;49.512;10.892;2022-08-11T02:59:32;98407.78;;;16.23;65.95
31501;BME280;31032;49.512;10.892;2022-08-11T03:08:06;98410.72;;;16.02;65.67
31501;BME280;31032;49.512;10.892;2022-08-11T03:17:03;98414.19;;;15.93;66.17
31501;BME280;31032;49.512;10.892;2022-08-11T03:19:48;98410.06;;;15.73;66.97
31501;BME280;31032;49.512;10.892;2022-08-11T03:22:28;98409.47;;;15.79;67.46
31501;BME280;31032;49.512;10.892;2022-08-11T03:25:02;98414.09;;;15.85;67.18
31501;BME280;31032;49.512;10.892;2022-08-11T03:30:30;98419.59;;;15.92;66.10
31501;BME280;31032;49.512;10.892;2022-08-11T03:33:18;98412.09;;;15.52;68.90
31501;BME280;31032;49.512;10.892;2022-08-11T03:39:08;98404.31;;;15.60;67.73
31501;BME280;31032;49.512;10.892;2022-08-11T03:41:39;98413.25;;;15.67;67.38
31501;BME280;31032;49.512;10.892;2022-08-11T03:49:29;98414.13;;;15.58;68.89
31501;BME280;31032;49.512;10.892;2022-08-11T03:52:22;98408.22;;;15.56;68.65
31501;BME280;31032;49.512;10.892;2022-08-11T03:58:00;98404.81;;;15.46;69.13
31501;BME280;31032;49.512;10.892;2022-08-11T04:03:24;98407.66;;;15.53;67.90
31501;BME280;31032;49.512;10.892;2022-08-11T04:30:04;98406.81;;;15.25;69.46
31501;BME280;31032;49.512;10.892;2022-08-11T04:33:00;98405.97;;;15.24;70.23
31501;BME280;31032;49.512;10.892;2022-08-11T04:49:48;98424.59;;;15.31;70.53
31501;BME280;31032;49.512;10.892;2022-08-11T04:52:55;98423.19;;;15.46;70.66
31501;BME280;31032;49.512;10.892;2022-08-11T04:56:01;98431.16;;;15.54;70.83
31501;BME280;31032;49.512;10.892;2022-08-11T05:02:09;98431.97;;;14.99;74.45
31501;BME280;31032;49.512;10.892;2022-08-11T05:04:48;98439.28;;;15.05;72.34
31501;BME280;31032;49.512;10.892;2022-08-11T05:13:33;98442.91;;;15.50;70.62
31501;BME280;31032;49.512;10.892;2022-08-11T05:16:44;98443.22;;;15.28;71.67
31501;BME280;31032;49.512;10.892;2022-08-11T05:19:30;98444.34;;;15.62;70.00
31501;BME280;31032;49.512;10.892;2022-08-11T05:22:17;98442.72;;;15.61;70.39
31501;BME280;31032;49.512;10.892;2022-08-11T05:25:14;98441.50;;;15.56;72.69
31501;BME280;31032;49.512;10.892;2022-08-11T05:28:12;98447.28;;;15.59;72.19
31501;BME280;31032;49.512;10.892;2022-08-11T05:31:01;98450.00;;;15.67;70.92
31501;BME280;31032;49.512;10.892;2022-08-11T05:33:49;98452.53;;;15.86;71.18
31501;BME280;31032;49.512;10.892;2022-08-11T05:36:48;98448.09;;;16.14;69.26
31501;BME280;31032;49.512;10.892;2022-08-11T05:39:16;98448.38;;;16.28;68.46
31501;BME280;31032;49.512;10.892;2022-08-11T05:42:05;98451.84;;;16.47;67.76
31501;BME280;31032;49.512;10.892;2022-08-11T05:44:52;98461.47;;;16.56;67.83
31501;BME280;31032;49.512;10.892;2022-08-11T05:47:38;98455.78;;;16.60;68.26
31501;BME280;31032;49.512;10.892;2022-08-11T05:50:22;98456.81;;;16.50;70.39
31501;BME280;31032;49.512;10.892;2022-08-11T05:53:09;98467.78;;;16.63;70.64
31501;BME280;31032;49.512;10.892;2022-08-11T05:55:55;98465.69;;;16.84;69.68
31501;BME280;31032;49.512;10.892;2022-08-11T05:58:42;98464.16;;;16.99;68.87
31501;BME280;31032;49.512;10.892;2022-08-11T06:01:10;98468.47;;;17.08;68.77
31501;BME280;31032;49.512;10.892;2022-08-11T06:03:37;98462.28;;;17.17;69.37
31501;BME280;31032;49.512;10.892;2022-08-11T06:06:26;98455.22;;;17.43;67.84
31501;BME280;31032;49.512;10.892;2022-08-11T06:08:57;98458.09;;;17.50;68.80
31501;BME280;31032;49.512;10.892;2022-08-11T06:11:24;98459.09;;;17.57;67.69
31501;BME280;31032;49.512;10.892;2022-08-11T06:13:51;98453.38;;;17.69;67.41
31501;BME280;31032;49.512;10.892;2022-08-11T06:16:21;98465.97;;;17.83;67.05
31501;BME280;31032;49.512;10.892;2022-08-11T06:18:48;98464.06;;;18.01;67.07
31501;BME280;31032;49.512;10.892;2022-08-11T06:21:14;98460.31;;;18.20;66.41
31501;BME280;31032;49.512;10.892;2022-08-11T06:23:41;98462.50;;;18.33;65.38
31501;BME280;31032;49.512;10.892;2022-08-11T06:26:12;98463.84;;;18.45;64.33
31501;BME280;31032;49.512;10.892;2022-08-11T06:28:42;98454.34;;;18.60;65.31
31501;BME280;31032;49.512;10.892;2022-08-11T06:31:20;98458.94;;;18.82;63.65
31501;BME280;31032;49.512;10.892;2022-08-11T06:36:30;98454.81;;;19.12;62.44
31501;BME280;31032;49.512;10.892;2022-08-11T06:40:12;98452.81;;;19.30;60.99
31501;BME280;31032;49.512;10.892;2022-08-11T06:42:13;98451.25;;;19.51;60.63
31501;BME280;31032;49.512;10.892;2022-08-11T06:44:42;98449.38;;;19.76;59.80
31501;BME280;31032;49.512;10.892;2022-08-11T06:47:10;98452.78;;;19.93;58.70
31501;BME280;31032;49.512;10.892;2022-08-11T06:49:38;98453.50;;;20.09;58.35
31501;BME280;31032;49.512;10.892;2022-08-11T06:52:34;98455.25;;;20.25;58.52
31501;BME280;31032;49.512;10.892;2022-08-11T06:55:05;98459.72;;;20.55;58.14
31501;BME280;31032;49.512;10.892;2022-08-11T06:57:34;98454.38;;;20.63;56.93
31501;BME280;31032;49.512;10.892;2022-08-11T07:00:20;98458.53;;;20.80;56.39
31501;BME280;31032;49.512;10.892;2022-08-11T07:03:12;98456.91;;;21.16;54.55
31501;BME280;31032;49.512;10.892;2022-08-11T07:05:49;98453.66;;;21.43;54.11
31501;BME280;31032;49.512;10.892;2022-08-11T07:14:03;98447.91;;;21.84;53.58
31501;BME280;31032;49.512;10.892;2022-08-11T07:16:49;98445.78;;;21.94;52.71
31501;BME280;31032;49.512;10.892;2022-08-11T07:19:21;98443.59;;;22.12;52.39
31501;BME280;31032;49.512;10.892;2022-08-11T07:22:09;98437.44;;;22.26;51.22
31501;BME280;31032;49.512;10.892;2022-08-11T07:25:03;98439.47;;;22.45;50.60
31501;BME280;31032;49.512;10.892;2022-08-11T07:27:57;98437.84;;;22.65;49.22
31501;BME280;31032;49.512;10.892;2022-08-11T07:30:43;98440.47;;;22.86;49.31
31501;BME280;31032;49.512;10.892;2022-08-11T07:33:10;98434.25;;;23.00;49.29
31501;BME280;31032;49.512;10.892;2022-08-11T07:35:42;98435.59;;;23.17;48.15
31501;BME280;31032;49.512;10.892;2022-08-11T07:38:18;98435.47;;;23.25;48.02
31501;BME280;31032;49.512;10.892;2022-08-11T07:40:46;98433.69;;;23.33;47.43
31501;BME280;31032;49.512;10.892;2022-08-11T07:43:12;98442.81;;;23.51;46.97
31501;BME280;31032;49.512;10.892;2022-08-11T07:45:42;98435.19;;;23.76;46.28
31501;BME280;31032;49.512;10.892;2022-08-11T07:48:27;98435.22;;;23.82;45.53
31501;BME280;31032;49.512;10.892;2022-08-11T07:51:17;98429.94;;;23.95;44.96
31501;BME280;31032;49.512;10.892;2022-08-11T07:54:02;98428.41;;;24.14;44.81
31501;BME280;31032;49.512;10.892;2022-08-11T07:56:32;98430.09;;;24.28;45.11
31501;BME280;31032;49.512;10.892;2022-08-11T07:58:58;98438.28;;;24.33;44.61
31501;BME280;31032;49.512;10.892;2022-08-11T08:01:42;98432.59;;;24.49;44.73
31501;BME280;31032;49.512;10.892;2022-08-11T08:04:26;98437.50;;;24.46;44.17
31501;BME280;31032;49.512;10.892;2022-08-11T08:07:11;98430.78;;;24.63;43.64
31501;BME280;31032;49.512;10.892;2022-08-11T08:09:55;98426.91;;;24.65;42.69
31501;BME280;31032;49.512;10.892;2022-08-11T08:12:39;98422.84;;;24.82;43.27
31501;BME280;31032;49.512;10.892;2022-08-11T08:15:25;98421.81;;;24.96;42.00
31501;BME280;31032;49.512;10.892;2022-08-11T08:18:09;98424.47;;;25.03;41.39
31501;BME280;31032;49.512;10.892;2022-08-11T08:20:45;98422.22;;;25.20;41.40
31501;BME280;31032;49.512;10.892;2022-08-11T08:23:12;98423.66;;;25.16;41.04
31501;BME280;31032;49.512;10.892;2022-08-11T08:25:39;98412.75;;;25.30;40.53
31501;BME280;31032;49.512;10.892;2022-08-11T08:28:08;98419.50;;;25.46;39.42
31501;BME280;31032;49.512;10.892;2022-08-11T08:30:35;98415.63;;;25.55;38.38
31501;BME280;31032;49.512;10.892;2022-08-11T08:33:21;98418.63;;;25.65;39.61
31501;BME280;31032;49.512;10.892;2022-08-11T08:35:51;98423.56;;;25.74;39.01
31501;BME280;31032;49.512;10.892;2022-08-11T08:38:57;98409.16;;;25.82;38.95
31501;BME280;31032;49.512;10.892;2022-08-11T08:41:27;98410.72;;;25.96;38.23
31501;BME280;31032;49.512;10.892;2022-08-11T08:43:57;98417.66;;;26.04;38.53
31501;BME280;31032;49.512;10.892;2022-08-11T08:46:29;98409.06;;;26.08;38.96
31501;BME280;31032;49.512;10.892;2022-08-11T08:49:00;98413.94;;;26.18;38.89
31501;BME280;31032;49.512;10.892;2022-08-11T08:51:27;98412.78;;;26.07;38.12
31501;BME280;31032;49.512;10.892;2022-08-11T08:54:03;98414.78;;;26.18;37.98
31501;BME280;31032;49.512;10.892;2022-08-11T08:56:29;98417.69;;;26.10;38.77
31501;BME280;31032;49.512;10.892;2022-08-11T08:59:00;98412.94;;;26.19;38.19
31501;BME280;31032;49.512;10.892;2022-08-11T09:01:28;98415.78;;;26.17;38.59
31501;BME280;31032;49.512;10.892;2022-08-11T09:03:55;98418.03;;;26.20;38.55
31501;BME280;31032;49.512;10.892;2022-08-11T09:06:20;98412.66;;;26.27;38.36
31501;BME280;31032;49.512;10.892;2022-08-11T09:08:46;98403.75;;;26.39;37.59
31501;BME280;31032;49.512;10.892;2022-08-11T09:11:12;98402.19;;;26.56;37.29
31501;BME280;31032;49.512;10.892;2022-08-11T09:13:57;98405.56;;;26.45;36.24
31501;BME280;31032;49.512;10.892;2022-08-11T09:16:23;98413.38;;;26.40;37.03
31501;BME280;31032;49.512;10.892;2022-08-11T09:18:50;98409.47;;;26.43;38.02
31501;BME280;31032;49.512;10.892;2022-08-11T09:21:16;98403.16;;;26.37;36.20
31501;BME280;31032;49.512;10.892;2022-08-11T09:23:45;98405.50;;;26.52;36.52
31501;BME280;31032;49.512;10.892;2022-08-11T09:26:30;98402.53;;;26.66;36.72
31501;BME280;31032;49.512;10.892;2022-08-11T09:29:13;98409.00;;;26.84;35.91
31501;BME280;31032;49.512;10.892;2022-08-11T09:31:40;98410.56;;;26.66;35.53
31501;BME280;31032;49.512;10.892;2022-08-11T09:34:08;98413.03;;;26.93;35.70
31501;BME280;31032;49.512;10.892;2022-08-11T09:36:34;98406.66;;;26.69;35.33
31501;BME280;31032;49.512;10.892;2022-08-11T09:39:18;98404.22;;;26.61;35.89
31501;BME280;31032;49.512;10.892;2022-08-11T09:42:03;98399.91;;;26.60;35.16
31501;BME280;31032;49.512;10.892;2022-08-11T09:44:32;98395.44;;;26.54;35.49
31501;BME280;31032;49.512;10.892;2022-08-11T09:47:26;98391.25;;;26.96;35.90
31501;BME280;31032;49.512;10.892;2022-08-11T09:49:58;98384.66;;;27.16;35.24
31501;BME280;31032;49.512;10.892;2022-08-11T09:52:25;98391.28;;;27.32;34.90
31501;BME280;31032;49.512;10.892;2022-08-11T09:54:52;98390.44;;;27.38;34.21
31501;BME280;31032;49.512;10.892;2022-08-11T09:57:22;98383.31;;;27.50;33.85
31501;BME280;31032;49.512;10.892;2022-08-11T10:00:08;98381.50;;;27.80;34.29
31501;BME280;31032;49.512;10.892;2022-08-11T10:02:39;98397.38;;;27.63;34.66
31501;BME280;31032;49.512;10.892;2022-08-11T10:05:07;98380.91;;;27.78;33.92
31501;BME280;31032;49.512;10.892;2022-08-11T10:07:51;98380.38;;;27.88;34.52
31501;BME280;31032;49.512;10.892;2022-08-11T10:10:18;98380.47;;;27.81;34.49
31501;BME280;31032;49.512;10.892;2022-08-11T10:13:13;98373.28;;;27.63;33.67
31501;BME280;31032;49.512;10.892;2022-08-11T10:15:41;98379.28;;;27.77;34.39
31501;BME280;31032;49.512;10.892;2022-08-11T10:18:14;98362.34;;;27.47;33.77
31501;BME280;31032;49.512;10.892;2022-08-11T10:21:01;98373.22;;;27.52;33.82
31501;BME280;31032;49.512;10.892;2022-08-11T10:23:32;98370.34;;;28.01;33.83
31501;BME280;31032;49.512;10.892;2022-08-11T10:26:29;98373.47;;;28.16;34.15
31501;BME280;31032;49.512;10.892;2022-08-11T10:29:14;98369.72;;;28.17;33.62
31501;BME280;31032;49.512;10.892;2022-08-11T10:31:59;98374.28;;;28.28;33.81
31501;BME280;31032;49.512;10.892;2022-08-11T10:34:46;98368.94;;;28.28;33.59
31501;BME280;31032;49.512;10.892;2022-08-11T10:37:14;98361.06;;;28.45;33.36
31501;BME280;31032;49.512;10.892;2022-08-11T10:39:40;98353.09;;;28.57;33.43
31501;BME280;31032;49.512;10.892;2022-08-11T10:42:07;98356.06;;;28.48;33.93
31501;BME280;31032;49.512;10.892;2022-08-11T10:44:54;98369.00;;;28.51;33.83
31501;BME280;31032;49.512;10.892;2022-08-11T10:47:22;98354.81;;;28.51;32.59
31501;BME280;31032;49.512;10.892;2022-08-11T10:50:10;98347.19;;;28.36;32.62
31501;BME280;31032;49.512;10.892;2022-08-11T10:52:56;98347.25;;;28.60;31.83
31501;BME280;31032;49.512;10.892;2022-08-11T10:55:43;98338.88;;;28.68;31.83
31501;BME280;31032;49.512;10.892;2022-08-11T10:58:27;98337.84;;;28.57;31.83
31501;BME280;31032;49.512;10.892;2022-08-11T11:01:25;98333.88;;;28.71;33.34
31501;BME280;31032;49.512;10.892;2022-08-11T11:03:54;98337.13;;;28.85;31.91
31501;BME280;31032;49.512;10.892;2022-08-11T11:06:32;98324.06;;;28.88;32.76
31501;BME280;31032;49.512;10.892;2022-08-11T11:09:06;98335.03;;;28.98;32.38
31501;BME280;31032;49.512;10.892;2022-08-11T11:11:36;98328.75;;;28.93;32.67
31501;BME280;31032;49.512;10.892;2022-08-11T11:14:21;98320.38;;;28.78;33.50
31501;BME280;31032;49.512;10.892;2022-08-11T11:17:08;98317.94;;;28.88;33.87
31501;BME280;31032;49.512;10.892;2022-08-11T11:19:57;98314.75;;;28.79;33.09
31501;BME280;31032;49.512;10.892;2022-08-11T11:22:27;98315.94;;;28.95;33.91
31501;BME280;31032;49.512;10.892;2022-08-11T11:25:12;98308.38;;;28.92;33.83
31501;BME280;31032;49.512;10.892;2022-08-11T11:30:10;98304.50;;;29.11;32.24
31501;BME280;31032;49.512;10.892;2022-08-11T11:35:35;98301.59;;;29.01;32.83
31501;BME280;31032;49.512;10.892;2022-08-11T11:38:06;98308.69;;;29.30;31.52
31501;BME280;31032;49.512;10.892;2022-08-11T11:40:35;98291.34;;;29.21;30.34
31501;BME280;31032;49.512;10.892;2022-08-11T11:43:02;98287.34;;;29.12;31.03
31501;BME280;31032;49.512;10.892;2022-08-11T11:45:28;98292.56;;;29.42;32.00
31501;BME280;31032;49.512;10.892;2022-08-11T11:47:55;98289.63;;;29.43;31.66
31501;BME280;31032;49.512;10.892;2022-08-11T11:50:29;98283.41;;;29.54;31.96
31501;BME280;31032;49.512;10.892;2022-08-11T11:52:57;98283.94;;;29.39;30.57
31501;BME280;31032;49.512;10.892;2022-08-11T11:55:23;98286.41;;;29.69;30.92
31501;BME280;31032;49.512;10.892;2022-08-11T11:57:51;98289.56;;;29.66;30.32
31501;BME280;31032;49.512;10.892;2022-08-11T12:00:38;98281.03;;;29.69;30.04
31501;BME280;31032;49.512;10.892;2022-08-11T12:03:23;98275.88;;;29.79;29.55
31501;BME280;31032;49.512;10.892;2022-08-11T12:05:49;98279.25;;;30.03;29.83
31501;BME280;31032;49.512;10.892;2022-08-11T12:08:17;98275.38;;;30.10;29.35
31501;BME280;31032;49.512;10.892;2022-08-11T12:13:11;98271.63;;;30.11;29.59
31501;BME280;31032;49.512;10.892;2022-08-11T12:15:56;98273.00;;;30.14;30.17
31501;BME280;31032;49.512;10.892;2022-08-11T12:18:22;98273.75;;;30.26;29.52
31501;BME280;31032;49.512;10.892;2022-08-11T12:20:47;98264.28;;;30.07;28.97
31501;BME280;31032;49.512;10.892;2022-08-11T12:23:14;98268.06;;;30.06;29.17
31501;BME280;31032;49.512;10.892;2022-08-11T12:25:58;98257.88;;;30.08;28.72
31501;BME280;31032;49.512;10.892;2022-08-11T12:28:44;98255.41;;;30.06;28.94
31501;BME280;31032;49.512;10.892;2022-08-11T12:31:10;98262.25;;;29.97;29.17
31501;BME280;31032;49.512;10.892;2022-08-11T12:33:36;98255.91;;;30.20;29.18
31501;BME280;31032;49.512;10.892;2022-08-11T12:36:04;98253.38;;;29.97;28.48
31501;BME280;31032;49.512;10.892;2022-08-11T12:38:30;98246.53;;;29.89;29.04
31501;BME280;31032;49.512;10.892;2022-08-11T12:40:57;98251.88;;;30.34;28.36
31501;BME280;31032;49.512;10.892;2022-08-11T12:43:44;98226.06;;;30.50;27.98
31501;BME280;31032;49.512;10.892;2022-08-11T12:46:36;98240.53;;;30.65;26.54
31501;BME280;31032;49.512;10.892;2022-08-11T12:49:18;98242.16;;;30.66;26.52
31501;BME280;31032;49.512;10.892;2022-08-11T12:52:06;98232.38;;;30.77;27.50
31501;BME280;31032;49.512;10.892;2022-08-11T12:57:14;98226.03;;;30.83;27.06
31501;BME280;31032;49.512;10.892;2022-08-11T13:00:00;98225.38;;;30.76;27.61
31501;BME280;31032;49.512;10.892;2022-08-11T13:02:46;98220.66;;;30.83;27.64
31501;BME280;31032;49.512;10.892;2022-08-11T13:05:31;98227.00;;;30.77;27.80
31501;BME280;31032;49.512;10.892;2022-08-11T13:07:59;98215.31;;;30.88;27.60
31501;BME280;31032;49.512;10.892;2022-08-11T13:10:26;98211.94;;;30.97;27.56
31501;BME280;31032;49.512;10.892;2022-08-11T13:13:11;98205.88;;;31.07;27.34
31501;BME280;31032;49.512;10.892;2022-08-11T13:15:38;98213.22;;;31.33;27.01
31501;BME280;31032;49.512;10.892;2022-08-11T13:18:04;98216.19;;;31.37;27.45
31501;BME280;31032;49.512;10.892;2022-08-11T13:20:33;98216.47;;;31.35;27.00
31501;BME280;31032;49.512;10.892;2022-08-11T13:23:00;98217.63;;;31.39;26.73
31501;BME280;31032;49.512;10.892;2022-08-11T13:25:28;98210.38;;;31.23;26.70
31501;BME280;31032;49.512;10.892;2022-08-11T13:27:57;98212.13;;;31.34;26.88
31501;BME280;31032;49.512;10.892;2022-08-11T13:30:24;98204.59;;;31.36;26.59
31501;BME280;31032;49.512;10.892;2022-08-11T13:33:09;98204.00;;;31.51;27.29
31501;BME280;31032;49.512;10.892;2022-08-11T13:35:36;98208.28;;;31.47;27.08
31501;BME280;31032;49.512;10.892;2022-08-11T13:38:03;98195.94;;;31.51;26.81
31501;BME280;31032;49.512;10.892;2022-08-11T13:40:30;98200.75;;;31.49;26.48
31501;BME280;31032;49.512;10.892;2022-08-11T13:42:56;98190.25;;;31.47;26.90
31501;BME280;31032;49.512;10.892;2022-08-11T13:45:25;98197.47;;;31.68;26.28
31501;BME280;31032;49.512;10.892;2022-08-11T13:47:56;98189.53;;;31.57;26.85
31501;BME280;31032;49.512;10.892;2022-08-11T13:50:23;98192.38;;;31.72;26.47
31501;BME280;31032;49.512;10.892;2022-08-11T13:53:09;98181.72;;;31.87;26.05
31501;BME280;31032;49.512;10.892;2022-08-11T13:55:38;98180.47;;;31.94;26.64
31501;BME280;31032;49.512;10.892;2022-08-11T13:58:04;98174.63;;;32.08;26.11
31501;BME280;31032;49.512;10.892;2022-08-11T14:00:30;98178.88;;;32.30;26.12
31501;BME280;31032;49.512;10.892;2022-08-11T14:02:56;98182.75;;;32.44;25.82
31501;BME280;31032;49.512;10.892;2022-08-11T14:05:26;98173.66;;;32.55;25.70
31501;BME280;31032;49.512;10.892;2022-08-11T14:07:58;98177.13;;;32.46;25.29
31501;BME280;31032;49.512;10.892;2022-08-11T14:10:27;98173.69;;;32.60;25.56
31501;BME280;31032;49.512;10.892;2022-08-11T14:12:58;98168.53;;;32.54;26.48
31501;BME280;31032;49.512;10.892;2022-08-11T14:15:44;98163.16;;;32.54;26.39
31501;BME280;31032;49.512;10.892;2022-08-11T14:18:22;98159.22;;;32.76;26.68
31501;BME280;31032;49.512;10.892;2022-08-11T14:20:54;98158.97;;;32.88;26.04
31501;BME280;31032;49.512;10.892;2022-08-11T14:23:41;98156.53;;;32.81;25.81
31501;BME280;31032;49.512;10.892;2022-08-11T14:26:11;98156.78;;;32.75;26.33
31501;BME280;31032;49.512;10.892;2022-08-11T14:29:14;98148.47;;;32.87;25.55
31501;BME280;31032;49.512;10.892;2022-08-11T14:31:49;98149.63;;;33.06;26.35
31501;BME280;31032;49.512;10.892;2022-08-11T14:34:17;98152.13;;;33.27;26.29
31501;BME280;31032;49.512;10.892;2022-08-11T14:36:49;98150.50;;;33.26;25.23
31501;BME280;31032;49.512;10.892;2022-08-11T14:39:20;98150.78;;;33.20;24.79
31501;BME280;31032;49.512;10.892;2022-08-11T14:41:48;98151.53;;;33.10;26.37
31501;BME280;31032;49.512;10.892;2022-08-11T14:44:34;98139.97;;;33.20;25.66
31501;BME280;31032;49.512;10.892;2022-08-11T14:47:20;98148.06;;;33.25;25.03
31501;BME280;31032;49.512;10.892;2022-08-11T14:49:47;98139.25;;;33.59;25.84
31501;BME280;31032;49.512;10.892;2022-08-11T14:52:15;98137.63;;;33.79;25.60
31501;BME280;31032;49.512;10.892;2022-08-11T14:54:47;98129.53;;;33.84;24.60
31501;BME280;31032;49.512;10.892;2022-08-11T14:57:35;98133.81;;;33.44;24.42
31501;BME280;31032;49.512;10.892;2022-08-11T15:00:03;98131.34;;;33.38;25.62
31501;BME280;31032;49.512;10.892;2022-08-11T15:02:32;98124.13;;;33.68;25.63
31501;BME280;31032;49.512;10.892;2022-08-11T15:05:18;98130.34;;;33.94;25.23
31501;BME280;31032;49.512;10.892;2022-08-11T15:07:44;98135.72;;;34.49;24.80
31501;BME280;31032;49.512;10.892;2022-08-11T15:10:11;98131.53;;;34.82;23.94
31501;BME280;31032;49.512;10.892;2022-08-11T15:12:39;98123.78;;;36.02;23.30
31501;BME280;31032;49.512;10.892;2022-08-11T15:15:06;98133.94;;;37.52;21.86
31501;BME280;31032;49.512;10.892;2022-08-11T15:17:53;98132.31;;;37.88;21.41
31501;BME280;31032;49.512;10.892;2022-08-11T15:20:19;98142.34;;;39.20;21.09
31501;BME280;31032;49.512;10.892;2022-08-11T15:23:04;98131.84;;;39.00;20.92
31501;BME280;31032;49.512;10.892;2022-08-11T15:26:04;98125.28;;;39.86;20.96
31501;BME280;31032;49.512;10.892;2022-08-11T15:28:36;98137.66;;;41.40;19.90
31501;BME280;31032;49.512;10.892;2022-08-11T15:31:24;98126.72;;;41.40;19.84
31501;BME280;31032;49.512;10.892;2022-08-11T15:33:56;98130.41;;;41.27;19.33
31501;BME280;31032;49.512;10.892;2022-08-11T15:36:42;98126.97;;;40.96;19.29
31501;BME280;31032;49.512;10.892;2022-08-11T15:39:34;98118.19;;;41.76;18.72
31501;BME280;31032;49.512;10.892;2022-08-11T15:42:01;98122.06;;;41.83;18.52
31501;BME280;31032;49.512;10.892;2022-08-11T15:44:57;98124.50;;;42.86;18.64
31501;BME280;31032;49.512;10.892;2022-08-11T15:47:48;98123.91;;;42.26;18.47
31501;BME280;31032;49.512;10.892;2022-08-11T15:50:24;98125.03;;;42.25;18.58
31501;BME280;31032;49.512;10.892;2022-08-11T15:52:57;98119.88;;;42.23;18.34
31501;BME280;31032;49.512;10.892;2022-08-11T15:55:23;98117.84;;;43.16;18.24
31501;BME280;31032;49.512;10.892;2022-08-11T15:57:51;98123.31;;;42.58;18.21
31501;BME280;31032;49.512;10.892;2022-08-11T16:00:36;98113.38;;;42.45;18.61
31501;BME280;31032;49.512;10.892;2022-08-11T16:03:23;98117.38;;;42.85;18.60
31501;BME280;31032;49.512;10.892;2022-08-11T16:06:08;98113.38;;;42.45;18.65
31501;BME280;31032;49.512;10.892;2022-08-11T16:08:36;98109.78;;;42.90;18.12
31501;BME280;31032;49.512;10.892;2022-08-11T16:11:05;98104.75;;;42.63;18.13
31501;BME280;31032;49.512;10.892;2022-08-11T16:13:33;98098.53;;;43.33;18.71
31501;BME280;31032;49.512;10.892;2022-08-11T16:16:00;98109.72;;;44.83;17.78
31501;BME280;31032;49.512;10.892;2022-08-11T16:18:46;98102.34;;;44.51;17.55
31501;BME280;31032;49.512;10.892;2022-08-11T16:21:17;98099.34;;;42.84;18.63
31501;BME280;31032;49.512;10.892;2022-08-11T16:23:47;98088.34;;;40.89;19.81
31501;BME280;31032;49.512;10.892;2022-08-11T16:26:18;98084.94;;;38.75;21.16
31501;BME280;31032;49.512;10.892;2022-08-11T16:28:49;98065.91;;;37.57;21.52
31501;BME280;31032;49.512;10.892;2022-08-11T16:31:15;98067.22;;;35.85;22.83
31501;BME280;31032;49.512;10.892;2022-08-11T16:33:41;98057.44;;;34.68;23.74